Time;durP1;ratioP1;P1;durP2;ratioP2;P2;SDS_P1;SDS_P2;PMS_P1;PMS_P2;Temp;Humidity;BMP_temperature;BMP_pressure;BME280_temperature;BME280_humidity;BME280_pressure;Samples;Min_cycle;Max_cycle;Signal;HPM_P1;HPM_P2
2023/12/23 00:01:31;;;;;;;1.10;1.10;;;17.20;68.50;;;;;;4968536;28;43473;-70
2023/12/23 00:04:01;;;;;;;1.10;1.10;;;17.20;68.20;;;;;;4966001;28;43451;-69
2023/12/23 00:06:29;;;;;;;0.90;0.90;;;17.20;68.30;;;;;;4960686;28;43762;-69
2023/12/23 00:08:57;;;;;;;1.13;1.10;;;17.20;68.40;;;;;;4960091;28;43370;-69
2023/12/23 00:11:25;;;;;;;0.93;0.93;;;17.10;68.50;;;;;;4969306;28;43455;-69
2023/12/23 00:13:53;;;;;;;1.20;1.20;;;17.10;68.70;;;;;;4964742;28;43642;-70
2023/12/23 00:16:21;;;;;;;1.10;1.10;;;17.10;68.80;;;;;;4965644;28;43605;-70
2023/12/23 00:18:49;;;;;;;1.00;1.00;;;17.10;68.60;;;;;;4965740;28;43522;-69
2023/12/23 00:21:18;;;;;;;0.93;0.93;;;17.10;68.70;;;;;;4963193;28;43390;-69
2023/12/23 00:23:46;;;;;;;1.07;1.07;;;17.10;68.70;;;;;;4964131;28;43470;-70
2023/12/23 00:26:14;;;;;;;1.10;1.10;;;17.00;68.70;;;;;;4963805;28;43847;-70
2023/12/23 00:28:45;;;;;;;1.20;1.20;;;17.00;68.80;;;;;;4964932;28;43438;-69
2023/12/23 00:31:13;;;;;;;1.10;1.10;;;17.10;69.30;;;;;;4964500;28;43446;-69
2023/12/23 00:33:42;;;;;;;1.00;1.00;;;17.10;69.10;;;;;;4962886;28;43365;-72
2023/12/23 00:36:10;;;;;;;1.07;1.07;;;17.20;68.90;;;;;;4940740;28;43603;-71
2023/12/23 00:38:39;;;;;;;1.00;1.00;;;17.30;68.30;;;;;;4938489;28;44589;-72
2023/12/23 00:41:07;;;;;;;1.00;1.00;;;17.20;68.00;;;;;;4943844;28;43513;-72
2023/12/23 00:43:36;;;;;;;1.03;1.03;;;17.20;68.30;;;;;;4946094;28;43473;-72
2023/12/23 00:46:04;;;;;;;1.00;1.00;;;17.20;68.60;;;;;;4940485;28;47729;-72
2023/12/23 00:48:32;;;;;;;1.00;1.00;;;17.20;68.20;;;;;;4943121;28;44625;-72
2023/12/23 00:51:01;;;;;;;1.10;1.10;;;17.20;68.30;;;;;;4945218;28;43475;-72
2023/12/23 00:53:29;;;;;;;1.20;1.20;;;17.20;68.30;;;;;;4940304;28;43547;-72
2023/12/23 00:55:58;;;;;;;1.23;1.13;;;17.10;68.50;;;;;;4946236;28;45642;-72
2023/12/23 00:58:27;;;;;;;1.17;1.17;;;17.10;68.60;;;;;;4940858;28;45089;-72
2023/12/23 01:00:55;;;;;;;0.93;0.93;;;17.10;69.10;;;;;;4944416;28;43935;-72
2023/12/23 01:03:23;;;;;;;1.03;1.03;;;17.10;68.70;;;;;;4942905;28;43453;-72
2023/12/23 01:05:52;;;;;;;1.00;1.00;;;17.10;68.70;;;;;;4945809;28;43577;-71
2023/12/23 01:08:20;;;;;;;0.97;0.97;;;17.10;68.80;;;;;;4940924;28;44100;-72
2023/12/23 01:10:48;;;;;;;1.07;0.97;;;17.00;68.70;;;;;;4948495;28;43482;-72
2023/12/23 01:13:18;;;;;;;0.97;0.97;;;17.00;68.80;;;;;;4942514;28;43334;-72
2023/12/23 01:15:47;;;;;;;0.90;0.90;;;17.00;69.30;;;;;;4942633;28;43984;-72
2023/12/23 01:18:16;;;;;;;0.97;0.97;;;17.10;69.30;;;;;;4946100;28;44743;-72
2023/12/23 01:20:44;;;;;;;0.90;0.90;;;17.20;69.00;;;;;;4940376;28;43423;-72
2023/12/23 01:23:12;;;;;;;0.90;0.90;;;17.20;68.50;;;;;;4940861;28;44102;-72
2023/12/23 01:25:40;;;;;;;0.90;0.90;;;17.20;68.20;;;;;;4944518;28;45638;-72
2023/12/23 01:28:09;;;;;;;1.13;1.13;;;17.20;68.30;;;;;;4943310;28;44843;-72
2023/12/23 01:30:39;;;;;;;1.10;1.10;;;17.20;68.60;;;;;;4941929;28;43662;-71
2023/12/23 01:33:07;;;;;;;1.27;1.17;;;17.20;68.90;;;;;;4945688;28;43436;-72
2023/12/23 01:35:39;;;;;;;0.80;0.80;;;17.20;68.50;;;;;;4945734;28;46071;-72
2023/12/23 01:38:07;;;;;;;0.80;0.80;;;17.10;68.50;;;;;;4943053;28;43450;-72
2023/12/23 01:40:36;;;;;;;1.00;1.00;;;17.10;68.50;;;;;;4939310;28;43496;-72
2023/12/23 01:43:05;;;;;;;0.90;0.90;;;17.10;68.70;;;;;;4938374;28;43590;-72
2023/12/23 01:45:33;;;;;;;0.90;0.90;;;17.10;69.70;;;;;;4965089;28;44809;-68
2023/12/23 01:48:05;;;;;;;1.10;1.10;;;17.00;68.80;;;;;;4971715;28;44651;-68
2023/12/23 01:50:33;;;;;;;1.00;1.00;;;17.00;68.70;;;;;;4968037;28;43525;-68
2023/12/23 01:53:01;;;;;;;0.90;0.90;;;17.10;68.80;;;;;;4969603;28;43441;-69
2023/12/23 01:55:31;;;;;;;0.97;0.97;;;17.10;68.90;;;;;;4967437;28;46003;-68
2023/12/23 01:57:59;;;;;;;0.83;0.83;;;17.00;68.90;;;;;;4967745;28;45150;-68
2023/12/23 02:00:27;;;;;;;0.83;0.83;;;17.00;69.00;;;;;;4968879;28;43475;-70
2023/12/23 02:02:55;;;;;;;1.10;1.10;;;17.00;69.30;;;;;;4968670;28;43458;-69
2023/12/23 02:05:25;;;;;;;1.10;1.10;;;17.10;69.10;;;;;;4970443;28;45680;-69
2023/12/23 02:07:53;;;;;;;1.10;1.10;;;17.20;68.80;;;;;;4965850;28;43506;-68
2023/12/23 02:10:21;;;;;;;0.80;0.80;;;17.20;68.40;;;;;;4963593;28;43354;-69
2023/12/23 02:13:06;;;;;;;0.87;0.87;;;17.20;68.50;;;;;;4967838;28;43539;-68
2023/12/23 02:15:42;;;;;;;0.97;0.97;;;17.10;68.50;;;;;;4965098;28;45367;-69
2023/12/23 02:18:10;;;;;;;1.00;1.00;;;17.10;69.00;;;;;;4965904;28;44758;-69
2023/12/23 02:20:40;;;;;;;1.00;1.00;;;17.10;68.60;;;;;;4967979;28;43505;-69
2023/12/23 02:23:10;;;;;;;1.00;1.00;;;17.10;68.50;;;;;;4965814;28;43433;-69
2023/12/23 02:25:38;;;;;;;1.10;1.10;;;17.10;68.70;;;;;;4969296;28;45701;-69
2023/12/23 02:28:09;;;;;;;0.90;0.90;;;17.10;68.80;;;;;;4961815;28;44026;-68
2023/12/23 02:30:39;;;;;;;0.93;0.93;;;17.00;68.70;;;;;;4970577;28;43499;-69
2023/12/23 02:33:07;;;;;;;0.90;0.90;;;17.00;69.20;;;;;;4969715;28;43384;-68
2023/12/23 02:35:35;;;;;;;0.80;0.80;;;17.10;69.30;;;;;;4960004;28;45339;-69
2023/12/23 02:38:04;;;;;;;1.07;1.07;;;17.20;69.00;;;;;;4966217;28;44294;-68
2023/12/23 02:40:33;;;;;;;1.00;1.00;;;17.20;68.50;;;;;;4965336;28;43525;-68
2023/12/23 02:43:02;;;;;;;1.00;1.00;;;17.20;68.30;;;;;;4971667;28;43391;-69
2023/12/23 02:45:30;;;;;;;0.90;0.90;;;17.20;68.30;;;;;;4963465;28;46014;-70
2023/12/23 02:47:58;;;;;;;1.00;1.00;;;17.20;68.50;;;;;;4970085;28;44816;-69
2023/12/23 02:50:26;;;;;;;1.27;1.27;;;17.10;68.80;;;;;;4969064;28;43386;-70
2023/12/23 02:52:54;;;;;;;0.90;0.90;;;17.10;68.50;;;;;;4962085;28;43338;-70
2023/12/23 02:55:22;;;;;;;0.80;0.80;;;17.10;68.50;;;;;;4943261;28;45992;-71
2023/12/23 02:57:51;;;;;;;0.90;0.90;;;17.10;68.70;;;;;;4939764;28;43355;-72
2023/12/23 03:00:20;;;;;;;0.80;0.80;;;17.10;68.70;;;;;;4938843;28;43470;-72
2023/12/23 03:02:48;;;;;;;0.87;0.87;;;17.10;68.80;;;;;;4944277;28;43711;-72
2023/12/23 03:05:16;;;;;;;0.80;0.80;;;17.00;69.10;;;;;;4941221;28;45894;-71
2023/12/23 03:07:44;;;;;;;1.10;1.00;;;17.00;68.80;;;;;;4940899;28;43558;-71
2023/12/23 03:10:12;;;;;;;1.10;1.00;;;17.00;68.70;;;;;;4941060;28;43434;-71
2023/12/23 03:12:40;;;;;;;0.90;0.90;;;17.00;68.80;;;;;;4935947;28;43436;-71
2023/12/23 03:15:10;;;;;;;0.80;0.80;;;17.00;68.90;;;;;;4941540;28;44072;-72
2023/12/23 03:17:38;;;;;;;1.00;1.00;;;17.00;68.90;;;;;;4944799;28;45210;-71
2023/12/23 03:20:08;;;;;;;1.07;1.07;;;17.00;69.30;;;;;;4935752;28;43426;-71
2023/12/23 03:22:37;;;;;;;1.00;1.00;;;17.00;69.30;;;;;;4941349;28;43477;-71
2023/12/23 03:25:05;;;;;;;1.00;1.00;;;17.10;69.10;;;;;;4937718;28;45722;-71
2023/12/23 03:27:33;;;;;;;0.80;0.80;;;17.20;68.70;;;;;;4937602;28;44688;-72
2023/12/23 03:30:02;;;;;;;0.63;0.63;;;17.20;68.30;;;;;;4945046;28;43513;-71
2023/12/23 03:32:32;;;;;;;0.90;0.90;;;17.20;68.20;;;;;;4945368;28;43564;-71
2023/12/23 03:35:00;;;;;;;0.90;0.90;;;17.20;68.30;;;;;;4940323;28;43930;-71
2023/12/23 03:37:28;;;;;;;1.00;1.00;;;17.20;68.70;;;;;;4941829;28;43417;-71
2023/12/23 03:39:56;;;;;;;0.80;0.80;;;17.20;68.50;;;;;;4941694;28;43983;-71
2023/12/23 03:42:24;;;;;;;0.80;0.80;;;17.20;68.60;;;;;;4942219;28;43693;-71
2023/12/23 03:44:54;;;;;;;0.80;0.80;;;17.10;68.60;;;;;;4937597;28;46040;-72
2023/12/23 03:47:22;;;;;;;0.90;0.90;;;17.10;68.70;;;;;;4939785;28;44809;-71
2023/12/23 03:49:51;;;;;;;0.97;0.97;;;17.10;68.80;;;;;;4940265;28;43438;-71
2023/12/23 03:52:20;;;;;;;0.90;0.90;;;17.10;69.20;;;;;;4939248;28;43466;-72
2023/12/23 03:54:48;;;;;;;1.00;1.00;;;17.10;68.80;;;;;;4939229;28;45404;-71
2023/12/23 03:57:16;;;;;;;0.90;0.90;;;17.10;68.80;;;;;;4942934;28;45085;-71
2023/12/23 03:59:44;;;;;;;1.00;1.00;;;17.10;68.90;;;;;;4937521;28;43418;-71
2023/12/23 04:02:12;;;;;;;0.70;0.70;;;17.00;68.90;;;;;;4938425;28;43542;-71
2023/12/23 04:04:41;;;;;;;1.33;1.23;;;17.00;69.00;;;;;;4954506;28;44939;-69
2023/12/23 04:07:11;;;;;;;1.00;1.00;;;17.00;69.30;;;;;;4960131;28;44295;-69
2023/12/23 04:09:41;;;;;;;1.10;1.10;;;17.00;69.00;;;;;;4963706;28;43434;-70
2023/12/23 04:12:10;;;;;;;1.70;0.90;;;17.00;68.90;;;;;;4964118;28;44570;-69
2023/12/23 04:14:40;;;;;;;1.10;1.10;;;17.00;69.00;;;;;;4964444;28;43614;-69
2023/12/23 04:17:08;;;;;;;0.83;0.83;;;17.00;69.00;;;;;;4963229;28;45815;-69
2023/12/23 04:19:36;;;;;;;1.23;1.23;;;17.00;69.00;;;;;;4965489;28;43410;-69
2023/12/23 04:22:04;;;;;;;1.73;1.63;;;17.00;69.30;;;;;;4969762;28;43590;-69
2023/12/23 04:24:34;;;;;;;1.77;1.67;;;17.00;69.30;;;;;;4969485;28;45692;-69
2023/12/23 04:27:02;;;;;;;2.10;1.90;;;17.10;69.10;;;;;;4966684;28;45017;-69
2023/12/23 04:29:30;;;;;;;1.90;1.80;;;17.20;68.70;;;;;;4962812;28;43417;-70
2023/12/23 04:31:58;;;;;;;2.17;2.00;;;17.30;68.30;;;;;;4964209;28;43463;-70
2023/12/23 04:34:26;;;;;;;3.27;2.37;;;17.30;68.10;;;;;;4961859;28;45077;-70
2023/12/23 04:36:54;;;;;;;2.67;2.47;;;17.30;68.30;;;;;;4962679;28;44695;-69
2023/12/23 04:39:22;;;;;;;4.00;2.43;;;17.20;68.40;;;;;;4967541;28;43373;-69
2023/12/23 04:41:53;;;;;;;3.50;2.60;;;17.20;68.30;;;;;;4962735;28;43598;-69
2023/12/23 04:44:22;;;;;;;2.33;2.13;;;17.20;68.30;;;;;;4959983;28;44032;-69
2023/12/23 04:46:50;;;;;;;3.37;2.60;;;17.20;68.40;;;;;;4963374;28;45343;-70
2023/12/23 04:49:18;;;;;;;2.53;2.33;;;17.20;68.60;;;;;;4960296;28;43510;-69
2023/12/23 04:51:46;;;;;;;2.50;2.30;;;17.10;68.60;;;;;;4964427;28;43537;-69
2023/12/23 04:54:14;;;;;;;3.57;2.60;;;17.10;68.90;;;;;;4963274;28;45785;-69
2023/12/23 04:56:42;;;;;;;2.87;2.50;;;17.10;68.80;;;;;;4964459;28;43490;-70
2023/12/23 04:59:12;;;;;;;2.77;2.57;;;17.10;68.80;;;;;;4964533;28;43400;-69
2023/12/23 05:01:40;;;;;;;3.47;2.30;;;17.10;68.80;;;;;;4962442;28;43339;-69
2023/12/23 05:04:10;;;;;;;3.03;2.10;;;17.10;69.00;;;;;;4964208;28;45435;-70
2023/12/23 05:06:38;;;;;;;4.23;2.63;;;17.10;69.10;;;;;;4965328;28;44911;-70
2023/12/23 05:09:06;;;;;;;2.50;2.30;;;17.00;69.10;;;;;;4967615;28;43448;-70
2023/12/23 05:11:34;;;;;;;3.67;2.47;;;17.00;69.00;;;;;;4964702;28;43535;-70
2023/12/23 05:14:02;;;;;;;2.50;2.20;;;17.00;68.90;;;;;;4956580;28;43637;-72
2023/12/23 05:16:32;;;;;;;2.57;2.43;;;17.00;68.90;;;;;;4937914;28;44766;-72
2023/12/23 05:19:00;;;;;;;2.97;2.70;;;17.00;69.00;;;;;;4939436;28;43966;-72
2023/12/23 05:21:29;;;;;;;3.20;2.30;;;17.00;69.00;;;;;;4942424;28;43463;-72
2023/12/23 05:23:57;;;;;;;3.20;2.43;;;17.00;69.00;;;;;;4942038;28;45504;-72
2023/12/23 05:26:26;;;;;;;2.50;2.40;;;17.00;68.90;;;;;;4935674;28;44409;-72
2023/12/23 05:28:54;;;;;;;2.87;2.40;;;17.10;68.70;;;;;;4942397;28;43459;-72
2023/12/23 05:31:22;;;;;;;3.33;2.43;;;17.20;68.40;;;;;;4940566;28;43516;-72
2023/12/23 05:33:55;;;;;;;2.53;2.33;;;17.20;68.00;;;;;;4941302;28;43910;-72
2023/12/23 05:36:23;;;;;;;3.53;2.40;;;17.20;68.00;;;;;;4944009;28;43468;-72
2023/12/23 05:38:51;;;;;;;2.40;2.20;;;17.30;68.30;;;;;;4948575;28;43428;-72
2023/12/23 05:41:19;;;;;;;2.37;2.17;;;17.20;68.30;;;;;;4941808;28;43390;-72
2023/12/23 05:43:47;;;;;;;2.80;2.43;;;17.20;68.10;;;;;;4938299;28;43649;-72
2023/12/23 05:46:15;;;;;;;2.40;2.20;;;17.20;68.30;;;;;;4942756;28;43409;-72
2023/12/23 05:48:43;;;;;;;2.33;2.03;;;17.20;68.50;;;;;;4941971;28;43536;-72
2023/12/23 05:51:13;;;;;;;2.60;2.40;;;17.20;68.50;;;;;;4943478;28;43525;-72
2023/12/23 05:53:41;;;;;;;2.30;2.20;;;17.10;68.60;;;;;;4937302;28;43953;-72
2023/12/23 05:56:09;;;;;;;2.43;2.20;;;17.10;68.60;;;;;;4941336;28;45027;-72
2023/12/23 05:58:37;;;;;;;2.33;2.00;;;17.10;68.40;;;;;;4936805;28;43414;-72
2023/12/23 06:01:06;;;;;;;2.63;2.00;;;17.10;68.50;;;;;;4938641;28;43402;-72
2023/12/23 06:03:34;;;;;;;2.20;2.00;;;17.10;68.60;;;;;;4941167;28;43711;-72
2023/12/23 06:06:04;;;;;;;2.33;1.90;;;17.10;68.70;;;;;;4950978;28;43808;-72
2023/12/23 06:08:33;;;;;;;2.23;2.10;;;17.10;68.70;;;;;;4946360;28;43475;-72
2023/12/23 06:11:02;;;;;;;2.97;2.50;;;17.00;68.60;;;;;;4948778;28;43443;-72
2023/12/23 06:13:33;;;;;;;2.77;2.20;;;17.10;68.60;;;;;;4946189;28;43863;-72
2023/12/23 06:16:05;;;;;;;2.27;2.17;;;17.10;68.40;;;;;;4947473;28;43430;-72
2023/12/23 06:18:33;;;;;;;2.17;2.07;;;17.20;68.10;;;;;;4943276;28;43521;-73
2023/12/23 06:21:01;;;;;;;2.00;1.90;;;17.20;67.90;;;;;;4947957;28;44030;-72
2023/12/23 06:23:29;;;;;;;2.30;2.10;;;17.20;68.00;;;;;;4948118;28;43600;-71
2023/12/23 06:25:59;;;;;;;2.40;2.20;;;17.20;68.20;;;;;;4970400;28;43409;-70
2023/12/23 06:28:27;;;;;;;2.13;1.90;;;17.20;68.30;;;;;;4971148;28;43407;-69
2023/12/23 06:30:55;;;;;;;2.30;2.13;;;17.10;68.00;;;;;;4972163;28;43402;-69
2023/12/23 06:33:23;;;;;;;2.70;2.03;;;17.20;68.20;;;;;;4970347;28;43938;-70
2023/12/23 06:35:51;;;;;;;2.20;2.10;;;17.10;68.20;;;;;;4971205;28;43397;-70
2023/12/23 06:38:19;;;;;;;2.23;2.10;;;17.10;68.30;;;;;;4971043;28;43378;-70
2023/12/23 06:40:47;;;;;;;2.20;2.10;;;17.10;68.50;;;;;;4968404;28;43421;-70
2023/12/23 06:43:16;;;;;;;2.37;2.17;;;17.10;68.50;;;;;;4974360;28;44103;-70
2023/12/23 06:46:05;;;;;;;2.20;2.10;;;17.10;68.40;;;;;;4968566;28;43721;-70
2023/12/23 06:48:33;;;;;;;2.13;1.97;;;17.10;68.10;;;;;;4970263;28;44558;-69
2023/12/23 06:51:03;;;;;;;1.87;1.77;;;17.20;67.90;;;;;;4974272;28;43413;-69
2023/12/23 06:53:31;;;;;;;2.07;1.97;;;17.20;68.00;;;;;;4973914;28;43819;-69
2023/12/23 06:55:59;;;;;;;2.00;1.80;;;17.20;68.10;;;;;;4969966;28;43376;-70
2023/12/23 06:58:29;;;;;;;2.00;1.90;;;17.10;68.10;;;;;;4972364;28;43441;-69
2023/12/23 07:00:57;;;;;;;1.90;1.80;;;17.10;68.20;;;;;;4973040;28;43358;-69
2023/12/23 07:03:25;;;;;;;1.80;1.70;;;17.10;68.00;;;;;;4969421;28;46090;-70
2023/12/23 07:05:53;;;;;;;2.10;2.00;;;17.10;68.20;;;;;;4973670;28;43406;-70
2023/12/23 07:08:21;;;;;;;2.00;1.90;;;17.10;68.20;;;;;;4972661;28;43493;-69
2023/12/23 07:10:50;;;;;;;1.90;1.80;;;17.10;69.00;;;;;;4974647;28;43490;-69
2023/12/23 07:13:19;;;;;;;2.30;2.10;;;17.10;68.50;;;;;;4968858;28;43695;-70
2023/12/23 07:15:48;;;;;;;1.93;1.83;;;17.00;68.30;;;;;;4973607;28;43450;-70
2023/12/23 07:18:16;;;;;;;2.03;1.87;;;17.10;68.20;;;;;;4967237;28;43453;-70
2023/12/23 07:20:46;;;;;;;1.93;1.83;;;17.00;68.30;;;;;;4965637;28;43417;-70
2023/12/23 07:23:14;;;;;;;2.10;2.00;;;17.00;68.40;;;;;;4967187;28;44248;-69
2023/12/23 07:25:42;;;;;;;2.00;1.90;;;17.00;69.20;;;;;;4971853;28;43475;-69
2023/12/23 07:28:10;;;;;;;1.97;1.87;;;17.00;68.50;;;;;;4973146;28;43385;-69
2023/12/23 07:30:44;;;;;;;1.90;1.80;;;17.00;68.50;;;;;;4974528;28;43386;-69
2023/12/23 07:33:14;;;;;;;1.80;1.70;;;17.00;68.30;;;;;;4972066;28;43703;-69
2023/12/23 07:35:42;;;;;;;1.77;1.70;;;17.10;68.20;;;;;;4945818;28;43546;-71
2023/12/23 07:38:11;;;;;;;1.77;1.70;;;17.30;67.90;;;;;;4946057;28;43476;-71
2023/12/23 07:40:39;;;;;;;1.70;1.70;;;17.30;67.50;;;;;;4943289;28;43463;-71
2023/12/23 07:43:07;;;;;;;1.80;1.70;;;17.30;67.60;;;;;;4945485;28;45981;-71
2023/12/23 07:45:37;;;;;;;1.50;1.40;;;17.20;67.70;;;;;;4943569;28;43368;-72
2023/12/23 07:48:06;;;;;;;1.90;1.80;;;17.20;67.70;;;;;;4947667;28;43449;-71
2023/12/23 07:50:35;;;;;;;1.77;1.70;;;17.20;67.70;;;;;;4939829;28;43446;-72
2023/12/23 07:53:03;;;;;;;1.67;1.57;;;17.20;67.80;;;;;;4947887;28;43605;-71
2023/12/23 07:55:31;;;;;;;1.70;1.60;;;17.10;67.90;;;;;;4945893;28;44134;-71
2023/12/23 07:58:00;;;;;;;2.20;2.07;;;17.10;68.70;;;;;;4941877;28;43406;-71
2023/12/23 08:00:28;;;;;;;1.63;1.60;;;17.10;68.20;;;;;;4942475;28;43405;-71
2023/12/23 08:02:56;;;;;;;1.73;1.63;;;17.10;68.20;;;;;;4943054;28;45122;-71
2023/12/23 08:05:24;;;;;;;1.77;1.67;;;17.10;68.20;;;;;;4945798;28;43977;-71
2023/12/23 08:07:54;;;;;;;1.60;1.60;;;17.10;68.30;;;;;;4943635;28;43379;-71
2023/12/23 08:10:22;;;;;;;1.50;1.50;;;17.00;68.30;;;;;;4948067;28;43442;-71
2023/12/23 08:12:50;;;;;;;1.57;1.50;;;17.10;68.50;;;;;;4947052;28;43846;-71
2023/12/23 08:15:18;;;;;;;1.77;1.67;;;17.00;68.40;;;;;;4945807;28;43579;-72
2023/12/23 08:17:46;;;;;;;1.80;1.70;;;17.00;68.30;;;;;;4946657;28;43436;-71
2023/12/23 08:20:15;;;;;;;1.80;1.70;;;17.00;68.30;;;;;;4949453;28;43347;-71
2023/12/23 08:22:43;;;;;;;1.50;1.50;;;17.10;68.10;;;;;;4942222;28;43819;-71
2023/12/23 08:25:12;;;;;;;1.60;1.50;;;17.20;67.70;;;;;;4949324;28;43422;-71
2023/12/23 08:27:40;;;;;;;1.50;1.50;;;17.20;67.70;;;;;;4947584;28;43354;-71
2023/12/23 08:30:09;;;;;;;2.00;1.90;;;17.20;67.80;;;;;;4945493;28;43808;-71
2023/12/23 08:32:37;;;;;;;1.63;1.60;;;17.20;68.00;;;;;;4942749;28;43925;-71
2023/12/23 08:35:06;;;;;;;1.50;1.50;;;17.10;68.00;;;;;;4941830;28;43425;-72
2023/12/23 08:37:34;;;;;;;1.90;1.80;;;17.10;67.80;;;;;;4946607;28;43465;-72
2023/12/23 08:40:02;;;;;;;1.50;1.40;;;17.10;68.00;;;;;;4946489;28;43412;-73
2023/12/23 08:42:31;;;;;;;1.70;1.60;;;17.10;68.10;;;;;;4947578;28;43609;-72
2023/12/23 08:45:00;;;;;;;1.43;1.43;;;17.10;68.20;;;;;;4962947;28;43430;-70
2023/12/23 08:47:27;;;;;;;1.70;1.70;;;17.10;68.30;;;;;;4973326;28;43379;-70
2023/12/23 08:49:56;;;;;;;1.50;1.50;;;17.00;68.20;;;;;;4971082;28;43425;-70
2023/12/23 08:52:24;;;;;;;1.47;1.47;;;17.00;68.10;;;;;;4963293;28;45410;-71
2023/12/23 08:54:52;;;;;;;1.67;1.67;;;17.00;68.30;;;;;;4972387;28;43535;-70
2023/12/23 08:57:20;;;;;;;1.30;1.30;;;17.00;68.30;;;;;;4973653;28;43303;-70
2023/12/23 08:59:49;;;;;;;1.20;1.20;;;17.00;68.30;;;;;;4970084;28;43454;-70
2023/12/23 09:02:17;;;;;;;1.60;1.60;;;17.00;68.40;;;;;;4971483;28;43684;-70
2023/12/23 09:04:45;;;;;;;1.77;1.67;;;17.00;68.30;;;;;;4975700;28;43413;-69
2023/12/23 09:07:14;;;;;;;1.37;1.37;;;17.00;68.20;;;;;;4974404;28;43521;-70
2023/12/23 09:09:42;;;;;;;1.40;1.40;;;17.10;68.70;;;;;;4965364;28;43473;-69
2023/12/23 09:12:10;;;;;;;1.60;1.60;;;17.20;67.70;;;;;;4968138;28;43601;-70
2023/12/23 09:14:38;;;;;;;1.50;1.50;;;17.30;67.60;;;;;;4969908;28;43389;-69
2023/12/23 09:17:08;;;;;;;1.57;1.37;;;17.30;67.70;;;;;;4970248;28;43522;-69
2023/12/23 09:19:36;;;;;;;1.53;1.53;;;17.20;67.70;;;;;;4972753;28;44234;-69
2023/12/23 09:22:04;;;;;;;1.50;1.50;;;17.20;67.70;;;;;;4974889;28;43860;-70
2023/12/23 09:24:32;;;;;;;1.30;1.30;;;17.20;67.70;;;;;;4974865;28;43962;-70
2023/12/23 09:27:00;;;;;;;1.50;1.50;;;17.20;67.90;;;;;;4972850;28;43452;-69
2023/12/23 09:29:28;;;;;;;1.20;1.20;;;17.10;67.90;;;;;;4975541;28;43447;-70
2023/12/23 09:31:57;;;;;;;1.37;1.37;;;17.10;68.10;;;;;;4972909;28;45847;-69
2023/12/23 09:34:26;;;;;;;1.40;1.40;;;17.10;68.20;;;;;;4972751;28;43479;-70
2023/12/23 09:36:54;;;;;;;1.30;1.30;;;17.00;68.10;;;;;;4969839;28;43498;-70
2023/12/23 09:39:22;;;;;;;1.43;1.43;;;17.00;68.00;;;;;;4974127;28;44235;-69
2023/12/23 09:41:50;;;;;;;1.47;1.47;;;17.10;68.20;;;;;;4973295;28;43840;-70
2023/12/23 09:44:18;;;;;;;1.60;1.50;;;17.00;68.20;;;;;;4970880;28;44862;-69
2023/12/23 09:46:46;;;;;;;1.10;1.10;;;17.00;68.30;;;;;;4971705;28;43415;-69
2023/12/23 09:49:14;;;;;;;1.47;1.47;;;17.00;68.30;;;;;;4969477;28;43362;-69
2023/12/23 09:51:44;;;;;;;1.60;1.60;;;17.00;68.30;;;;;;4970112;28;45883;-70
2023/12/23 09:54:14;;;;;;;1.13;1.13;;;17.10;68.40;;;;;;4971783;28;43473;-70
2023/12/23 09:56:43;;;;;;;1.40;1.40;;;17.10;68.10;;;;;;4971829;28;43457;-69
2023/12/23 09:59:11;;;;;;;1.63;1.63;;;17.20;67.70;;;;;;4974262;28;43397;-70
2023/12/23 10:01:39;;;;;;;1.50;1.50;;;17.20;67.60;;;;;;4968555;28;43858;-69
2023/12/23 10:04:07;;;;;;;1.27;1.27;;;17.20;67.70;;;;;;4974017;28;43402;-69
2023/12/23 10:06:35;;;;;;;1.50;1.50;;;17.10;67.70;;;;;;4972812;28;43544;-69
2023/12/23 10:09:05;;;;;;;1.40;1.40;;;17.10;67.80;;;;;;4970826;28;43466;-69
2023/12/23 10:11:33;;;;;;;1.30;1.30;;;17.10;67.70;;;;;;4970398;28;46131;-69
2023/12/23 10:14:01;;;;;;;1.10;1.10;;;17.10;67.90;;;;;;4970259;28;43382;-69
2023/12/23 10:16:29;;;;;;;1.40;1.40;;;17.10;68.00;;;;;;4962849;28;43402;-69
2023/12/23 10:18:57;;;;;;;1.40;1.40;;;17.10;68.10;;;;;;4972399;28;43382;-69
2023/12/23 10:21:25;;;;;;;1.50;1.50;;;17.10;68.20;;;;;;4975415;28;43675;-69
2023/12/23 10:23:54;;;;;;;1.70;1.70;;;17.10;68.20;;;;;;4973448;28;44406;-69
2023/12/23 10:26:24;;;;;;;1.40;1.40;;;17.00;68.00;;;;;;4972813;28;43446;-69
2023/12/23 10:28:55;;;;;;;1.40;1.40;;;17.00;68.20;;;;;;4969911;28;43420;-70
2023/12/23 10:31:23;;;;;;;1.40;1.40;;;17.00;68.30;;;;;;4965476;28;46026;-68
2023/12/23 10:33:52;;;;;;;1.60;1.60;;;17.00;68.30;;;;;;4970282;28;44705;-69
2023/12/23 10:36:20;;;;;;;1.60;1.50;;;17.00;68.30;;;;;;4974240;28;43471;-69
2023/12/23 10:38:49;;;;;;;1.50;1.50;;;17.00;68.40;;;;;;4974425;28;43322;-69
2023/12/23 10:41:21;;;;;;;1.20;1.20;;;17.00;68.80;;;;;;4971667;28;43605;-69
2023/12/23 10:43:50;;;;;;;1.20;1.20;;;17.00;68.30;;;;;;4970580;28;43959;-69
2023/12/23 10:46:18;;;;;;;1.40;1.40;;;17.00;68.40;;;;;;4972502;28;43446;-69
2023/12/23 10:48:46;;;;;;;1.20;1.20;;;17.00;68.40;;;;;;4971335;28;43416;-69
2023/12/23 10:51:15;;;;;;;1.30;1.30;;;17.00;68.50;;;;;;4971996;28;43692;-70
2023/12/23 10:53:44;;;;;;;1.20;1.20;;;17.00;68.40;;;;;;4973685;28;43492;-70
2023/12/23 10:56:12;;;;;;;1.40;1.40;;;17.00;68.30;;;;;;4971794;28;43422;-70
2023/12/23 10:58:43;;;;;;;1.37;1.37;;;17.10;68.20;;;;;;4970507;28;43369;-70
2023/12/23 11:01:12;;;;;;;1.30;1.30;;;17.20;67.90;;;;;;4969712;28;43600;-69
2023/12/23 11:03:41;;;;;;;1.40;1.40;;;17.20;67.50;;;;;;4968461;28;43563;-70
2023/12/23 11:06:09;;;;;;;1.20;1.20;;;17.20;67.40;;;;;;4973888;28;43378;-69
2023/12/23 11:08:37;;;;;;;1.40;1.40;;;17.20;67.60;;;;;;4969171;28;43445;-69
2023/12/23 11:11:05;;;;;;;1.50;1.50;;;17.20;67.70;;;;;;4973534;28;43870;-69
2023/12/23 11:13:33;;;;;;;1.33;1.33;;;17.20;67.50;;;;;;4969654;28;43480;-70
2023/12/23 11:16:01;;;;;;;1.50;1.50;;;17.20;67.50;;;;;;4971931;28;43406;-69
2023/12/23 11:18:30;;;;;;;1.30;1.30;;;17.20;67.80;;;;;;4972610;28;43358;-69
2023/12/23 11:20:58;;;;;;;1.40;1.40;;;17.20;68.00;;;;;;4967678;28;43898;-69
2023/12/23 11:23:29;;;;;;;1.30;1.30;;;17.10;68.00;;;;;;4967611;28;43502;-69
2023/12/23 11:25:58;;;;;;;1.20;1.20;;;17.10;68.00;;;;;;4967255;28;43443;-69
2023/12/23 11:28:26;;;;;;;1.20;1.20;;;17.10;68.00;;;;;;4969173;28;43600;-69
2023/12/23 11:30:55;;;;;;;1.17;1.17;;;17.10;68.00;;;;;;4965380;28;43922;-70
2023/12/23 11:33:24;;;;;;;1.33;1.23;;;17.10;68.20;;;;;;4965189;28;43510;-69
2023/12/23 11:35:54;;;;;;;1.13;1.13;;;17.10;68.20;;;;;;4966523;28;43413;-70
2023/12/23 11:38:27;;;;;;;1.40;1.30;;;17.10;68.30;;;;;;4967224;28;43451;-70
2023/12/23 11:40:56;;;;;;;1.20;1.20;;;17.00;68.20;;;;;;4971463;28;45706;-69
2023/12/23 11:43:24;;;;;;;1.20;1.20;;;17.00;68.20;;;;;;4969728;28;44490;-69
2023/12/23 11:45:52;;;;;;;1.33;1.33;;;17.10;68.10;;;;;;4968827;28;43439;-70
2023/12/23 11:48:21;;;;;;;1.50;1.20;;;17.20;67.90;;;;;;4972290;28;43430;-69
2023/12/23 11:50:49;;;;;;;1.30;1.30;;;17.20;67.40;;;;;;4973557;28;43601;-69
2023/12/23 11:53:19;;;;;;;1.00;1.00;;;17.30;67.40;;;;;;4968818;28;43551;-69
2023/12/23 11:55:47;;;;;;;1.20;1.20;;;17.20;67.60;;;;;;4968050;28;43362;-69
2023/12/23 11:58:16;;;;;;;1.33;1.33;;;17.20;67.60;;;;;;4968365;28;43472;-69
2023/12/23 12:00:45;;;;;;;1.20;1.20;;;17.20;67.50;;;;;;4973943;28;43961;-69
2023/12/23 12:03:13;;;;;;;1.50;1.50;;;17.20;67.70;;;;;;4972921;28;43430;-69
2023/12/23 12:05:41;;;;;;;1.30;1.30;;;17.20;67.90;;;;;;4971148;28;43413;-69
2023/12/23 12:08:09;;;;;;;1.10;1.10;;;17.10;67.90;;;;;;4968275;28;43347;-69
2023/12/23 12:10:39;;;;;;;1.40;1.40;;;17.10;68.10;;;;;;4966292;28;43958;-68
2023/12/23 12:13:07;;;;;;;1.20;1.20;;;17.10;68.10;;;;;;4969163;28;44688;-70
2023/12/23 12:15:35;;;;;;;1.07;1.07;;;17.10;68.00;;;;;;4969965;28;43485;-68
2023/12/23 12:18:04;;;;;;;1.40;1.30;;;17.10;68.20;;;;;;4973455;28;43482;-69
2023/12/23 12:20:32;;;;;;;1.20;1.20;;;17.10;68.20;;;;;;4971764;28;43597;-70
2023/12/23 12:23:02;;;;;;;1.17;1.17;;;17.10;68.30;;;;;;4961717;28;44299;-69
2023/12/23 12:25:30;;;;;;;3.67;1.80;;;17.00;68.30;;;;;;4968589;28;43433;-69
2023/12/23 12:27:59;;;;;;;3.57;1.73;;;17.00;68.30;;;;;;4964543;28;43542;-69
2023/12/23 12:30:27;;;;;;;4.97;1.50;;;17.10;68.30;;;;;;4964445;28;45077;-69
2023/12/23 12:32:55;;;;;;;1.50;1.50;;;17.10;68.00;;;;;;4964072;28;43429;-69
2023/12/23 12:35:23;;;;;;;2.77;1.93;;;17.20;67.70;;;;;;4964805;28;43379;-69
2023/12/23 12:37:51;;;;;;;2.03;1.53;;;17.20;67.80;;;;;;4962462;28;43566;-70
2023/12/23 12:40:19;;;;;;;2.90;1.77;;;17.20;67.90;;;;;;4964682;28;43614;-70
2023/12/23 12:42:50;;;;;;;1.30;1.30;;;17.10;67.90;;;;;;4963063;28;43423;-69
2023/12/23 12:45:20;;;;;;;1.37;1.37;;;17.10;67.90;;;;;;4964531;28;43614;-69
2023/12/23 12:47:48;;;;;;;1.50;1.40;;;17.10;67.80;;;;;;4963797;28;43593;-69
2023/12/23 12:50:18;;;;;;;1.20;1.20;;;17.10;68.00;;;;;;4965968;28;43777;-70
2023/12/23 12:52:46;;;;;;;1.30;1.30;;;17.10;68.00;;;;;;4963472;28;43418;-69
2023/12/23 12:55:15;;;;;;;1.40;1.40;;;17.10;68.00;;;;;;4972184;28;43538;-69